createdAt,value
2017-11-05T00:00:27.703Z,100151
2017-11-05T00:02:55.955Z,100155
2017-11-05T00:05:24.183Z,100153
2017-11-05T00:07:52.383Z,100147
2017-11-05T00:10:20.597Z,100145
2017-11-05T00:12:48.827Z,100147
2017-11-05T00:15:17.002Z,100147
2017-11-05T00:17:45.222Z,100153
2017-11-05T00:20:13.434Z,100144
2017-11-05T00:22:41.661Z,100151
2017-11-05T00:25:09.885Z,100136
2017-11-05T00:27:38.095Z,100147
2017-11-05T00:30:06.292Z,100149
2017-11-05T00:32:34.506Z,100141
2017-11-05T00:35:02.774Z,100144
2017-11-05T00:37:30.992Z,100137
2017-11-05T00:39:59.681Z,100137
2017-11-05T00:42:27.883Z,100142
2017-11-05T00:44:56.871Z,100147
2017-11-05T00:47:25.076Z,100147
2017-11-05T00:49:53.375Z,100144
2017-11-05T00:52:21.605Z,100145
2017-11-05T00:54:50.714Z,100142
2017-11-05T00:57:18.984Z,100145
2017-11-05T00:59:47.963Z,100147
2017-11-05T01:02:16.915Z,100145
2017-11-05T01:04:46.003Z,100144
2017-11-05T01:07:14.227Z,100136
2017-11-05T01:09:43.230Z,100134
2017-11-05T01:12:11.418Z,100136
2017-11-05T01:14:39.628Z,100141
2017-11-05T01:17:07.831Z,100139
2017-11-05T01:19:36.826Z,100138
2017-11-05T01:22:05.787Z,100145
2017-11-05T01:24:34.008Z,100146
2017-11-05T01:27:02.216Z,100140
2017-11-05T01:29:30.441Z,100150
2017-11-05T01:31:59.443Z,100141
2017-11-05T01:34:28.396Z,100145
2017-11-05T01:36:56.750Z,100143
2017-11-05T01:39:24.951Z,100147
2017-11-05T01:41:53.238Z,100155
2017-11-05T01:44:21.440Z,100154
2017-11-05T01:46:49.668Z,100154
2017-11-05T01:49:18.637Z,100145
2017-11-05T01:51:46.825Z,100142
2017-11-05T01:54:15.048Z,100144
2017-11-05T01:56:44.049Z,100150
2017-11-05T01:59:12.232Z,100154
2017-11-05T02:01:40.439Z,100143
2017-11-05T02:04:08.638Z,100152
2017-11-05T02:06:36.822Z,100153
2017-11-05T02:09:05.786Z,100154
2017-11-05T02:11:33.996Z,100159
2017-11-05T02:14:02.990Z,100157
2017-11-05T02:16:31.940Z,100147
2017-11-05T02:19:00.146Z,100147
2017-11-05T02:21:29.135Z,100149
2017-11-05T02:23:58.108Z,100154
2017-11-05T02:26:26.306Z,100154
2017-11-05T02:28:55.250Z,100166
2017-11-05T02:31:23.467Z,100159
2017-11-05T02:33:52.441Z,100170
2017-11-05T02:36:20.634Z,100167
2017-11-05T02:38:49.613Z,100174
2017-11-05T02:41:17.809Z,100175
2017-11-05T02:43:46.023Z,100177
2017-11-05T02:46:14.205Z,100180
2017-11-05T02:48:42.386Z,100179
2017-11-05T02:51:10.595Z,100175
2017-11-05T02:53:38.792Z,100173
2017-11-05T02:56:06.969Z,100179
2017-11-05T02:58:35.164Z,100173
2017-11-05T03:01:03.390Z,100171
2017-11-05T03:03:32.340Z,100180
2017-11-05T03:06:00.611Z,100194
2017-11-05T03:08:28.803Z,100187
2017-11-05T03:10:57.023Z,100187
2017-11-05T03:13:25.292Z,100190
2017-11-05T03:15:53.505Z,100193
2017-11-05T03:18:21.740Z,100193
2017-11-05T03:20:49.943Z,100185
2017-11-05T03:23:18.160Z,100182
2017-11-05T03:25:47.118Z,100179
2017-11-05T03:28:15.331Z,100191
2017-11-05T03:30:44.316Z,100185
2017-11-05T03:33:12.499Z,100192
2017-11-05T03:35:41.453Z,100193
2017-11-05T03:38:10.551Z,100198
2017-11-05T03:40:38.772Z,100201
2017-11-05T03:43:06.987Z,100195
2017-11-05T03:45:35.222Z,100200
2017-11-05T03:48:03.523Z,100187
2017-11-05T03:50:31.824Z,100185
2017-11-05T03:53:00.023Z,100193
2017-11-05T03:55:28.370Z,100192
2017-11-05T03:57:56.564Z,100189
2017-11-05T04:00:24.851Z,100186
2017-11-05T04:02:53.073Z,100182
2017-11-05T04:05:21.347Z,100187
2017-11-05T04:07:49.633Z,100193
2017-11-05T04:10:17.811Z,100196
2017-11-05T04:12:45.999Z,100186
2017-11-05T04:15:14.190Z,100203
2017-11-05T04:17:42.381Z,100213
2017-11-05T04:20:11.334Z,100214
2017-11-05T04:22:39.540Z,100217
2017-11-05T04:25:08.489Z,100213
2017-11-05T04:27:36.663Z,100218
2017-11-05T04:30:04.883Z,100208
2017-11-05T04:32:33.891Z,100216
2017-11-05T04:35:02.091Z,100208
2017-11-05T04:37:30.277Z,100215
2017-11-05T04:39:58.478Z,100209
2017-11-05T04:42:26.727Z,100208
2017-11-05T04:44:54.896Z,100212
2017-11-05T04:47:23.085Z,100211
2017-11-05T04:49:51.281Z,100204
2017-11-05T04:52:20.220Z,100209
2017-11-05T04:54:48.434Z,100213
2017-11-05T04:57:16.606Z,100215
2017-11-05T04:59:44.779Z,100215
2017-11-05T05:02:12.963Z,100218
2017-11-05T05:04:42.019Z,100210
2017-11-05T05:07:10.189Z,100208
2017-11-05T05:09:38.350Z,100208
2017-11-05T05:12:06.579Z,100200
2017-11-05T05:14:35.529Z,100207
2017-11-05T05:17:03.715Z,100221
2017-11-05T05:19:31.880Z,100209
2017-11-05T05:22:00.072Z,100210
2017-11-05T05:24:28.238Z,100204
2017-11-05T05:26:56.403Z,100212
2017-11-05T05:29:24.619Z,100213
2017-11-05T05:31:53.551Z,100210
2017-11-05T05:34:21.732Z,100211
2017-11-05T05:36:49.913Z,100205
2017-11-05T05:39:18.081Z,100200
2017-11-05T05:41:46.271Z,100208
2017-11-05T05:44:14.459Z,100211
2017-11-05T05:46:42.717Z,100214
2017-11-05T05:49:10.896Z,100218
2017-11-05T05:51:39.079Z,100205
2017-11-05T05:54:07.308Z,100212
2017-11-05T05:56:35.488Z,100215
2017-11-05T05:59:03.663Z,100220
2017-11-05T06:01:32.625Z,100236
2017-11-05T06:04:00.831Z,100233
2017-11-05T06:06:29.042Z,100240
2017-11-05T06:08:58.108Z,100239
2017-11-05T06:11:26.278Z,100237
2017-11-05T06:13:54.464Z,100248
2017-11-05T06:16:23.634Z,100236
2017-11-05T06:18:51.814Z,100237
2017-11-05T06:21:19.983Z,100245
2017-11-05T06:23:48.180Z,100255
2017-11-05T06:26:16.361Z,100256
2017-11-05T06:28:44.561Z,100259
2017-11-05T06:31:12.745Z,100256
2017-11-05T06:33:40.955Z,100259
2017-11-05T06:36:09.178Z,100260
2017-11-05T06:38:38.104Z,100273
2017-11-05T06:41:06.292Z,100266
2017-11-05T06:43:34.470Z,100267
2017-11-05T06:46:02.958Z,100272
2017-11-05T06:48:31.143Z,100278
2017-11-05T06:50:59.373Z,100286
2017-11-05T06:53:27.567Z,100281
2017-11-05T06:55:55.782Z,100288
2017-11-05T06:58:24.742Z,100292
2017-11-05T07:00:52.923Z,100295
2017-11-05T07:03:21.137Z,100302
2017-11-05T07:05:49.314Z,100301
2017-11-05T07:08:17.479Z,100308
2017-11-05T07:10:45.651Z,100309
2017-11-05T07:13:14.633Z,100311
2017-11-05T07:15:43.605Z,100319
2017-11-05T07:18:11.781Z,100318
2017-11-05T07:20:40.750Z,100316
2017-11-05T07:23:08.922Z,100323
2017-11-05T07:25:37.094Z,100325
2017-11-05T07:28:05.271Z,100334
2017-11-05T07:30:33.458Z,100343
2017-11-05T07:33:02.411Z,100337
2017-11-05T07:35:30.579Z,100351
2017-11-05T07:37:58.747Z,100350
2017-11-05T07:40:26.913Z,100349
2017-11-05T07:42:55.407Z,100345
2017-11-05T07:45:23.584Z,100344
2017-11-05T07:47:51.771Z,100341
2017-11-05T07:50:20.170Z,100347
2017-11-05T07:52:48.366Z,100350
2017-11-05T07:55:17.308Z,100353
2017-11-05T07:57:45.477Z,100358
2017-11-05T08:00:13.660Z,100353
2017-11-05T08:02:41.832Z,100364
2017-11-05T08:05:10.005Z,100365
2017-11-05T08:07:38.203Z,100362
2017-11-05T08:10:06.417Z,100361
2017-11-05T08:12:34.615Z,100364
2017-11-05T08:15:02.856Z,100363
2017-11-05T08:17:31.035Z,100368
2017-11-05T08:19:59.655Z,100368
2017-11-05T08:22:27.838Z,100381
2017-11-05T08:24:56.049Z,100383
2017-11-05T08:27:24.999Z,100387
2017-11-05T08:29:53.178Z,100393
2017-11-05T08:32:21.376Z,100389
2017-11-05T08:34:50.356Z,100400
2017-11-05T08:37:18.542Z,100396
2017-11-05T08:39:47.542Z,100397
2017-11-05T08:42:16.549Z,100402
2017-11-05T08:44:44.738Z,100404
2017-11-05T08:47:12.917Z,100404
2017-11-05T08:49:41.120Z,100404
2017-11-05T08:52:09.340Z,100404
2017-11-05T08:54:37.523Z,100408
2017-11-05T08:57:05.726Z,100412
2017-11-05T08:59:33.917Z,100410
2017-11-05T09:02:02.162Z,100408
2017-11-05T09:04:30.348Z,100407
2017-11-05T09:06:58.530Z,100413
2017-11-05T09:09:26.704Z,100417
2017-11-05T09:11:54.870Z,100408
2017-11-05T09:14:23.040Z,100407
2017-11-05T09:16:51.219Z,100414
2017-11-05T09:19:19.428Z,100413
2017-11-05T09:21:48.514Z,100424
2017-11-05T09:24:16.746Z,100420
2017-11-05T09:26:44.959Z,100426
2017-11-05T09:29:13.161Z,100419
2017-11-05T09:31:41.344Z,100423
2017-11-05T09:34:09.533Z,100415
2017-11-05T09:36:37.729Z,100412
2017-11-05T09:39:05.897Z,100425
2017-11-05T09:41:34.118Z,100422
2017-11-05T09:44:03.063Z,100426
2017-11-05T09:46:32.019Z,100424
2017-11-05T09:49:00.201Z,100427
2017-11-05T09:51:28.463Z,100421
2017-11-05T09:53:56.653Z,100432
2017-11-05T09:56:24.883Z,100434
2017-11-05T09:58:53.076Z,100425
2017-11-05T10:01:22.043Z,100423
2017-11-05T10:03:50.228Z,100416
2017-11-05T10:06:19.204Z,100424
2017-11-05T10:08:48.186Z,100424
2017-11-05T10:11:16.367Z,100420
2017-11-05T10:13:44.571Z,100422
2017-11-05T10:16:13.553Z,100429
2017-11-05T10:18:42.510Z,100426
2017-11-05T10:21:10.712Z,100413
2017-11-05T10:23:39.667Z,100421
2017-11-05T10:26:07.839Z,100427
2017-11-05T10:28:36.059Z,100437
2017-11-05T10:31:05.007Z,100432
2017-11-05T10:33:33.222Z,100427
2017-11-05T10:36:02.172Z,100432
2017-11-05T10:38:30.388Z,100438
2017-11-05T10:41:00.261Z,100445
2017-11-05T10:43:28.455Z,100449
2017-11-05T10:45:56.891Z,100443
2017-11-05T10:48:25.077Z,100443
2017-11-05T10:50:53.265Z,100443
2017-11-05T10:53:21.479Z,100433
2017-11-05T10:55:50.591Z,100431
2017-11-05T10:58:18.782Z,100433
2017-11-05T11:00:47.143Z,100437
2017-11-05T11:03:15.391Z,100429
2017-11-05T11:05:44.443Z,100441
2017-11-05T11:08:12.670Z,100438
2017-11-05T11:10:41.620Z,100438
2017-11-05T11:13:09.804Z,100437
2017-11-05T11:15:37.994Z,100440
2017-11-05T11:18:07.151Z,100446
2017-11-05T11:20:35.351Z,100449
2017-11-05T11:23:03.545Z,100456
2017-11-05T11:25:32.478Z,100453
2017-11-05T11:28:00.725Z,100458
2017-11-05T11:30:29.024Z,100460
2017-11-05T11:32:57.278Z,100457
2017-11-05T11:35:25.520Z,100459
2017-11-05T11:37:53.706Z,100455
2017-11-05T11:40:22.658Z,100457
2017-11-05T11:42:50.871Z,100457
2017-11-05T11:45:19.833Z,100466
2017-11-05T11:47:48.084Z,100465
2017-11-05T11:50:16.275Z,100460
2017-11-05T11:52:44.456Z,100473
2017-11-05T11:55:12.641Z,100466
2017-11-05T11:57:41.650Z,100468
2017-11-05T12:00:10.635Z,100476
2017-11-05T12:02:39.586Z,100473
2017-11-05T12:05:07.869Z,100477
2017-11-05T12:07:36.137Z,100487
2017-11-05T12:10:05.111Z,100489
2017-11-05T12:12:33.334Z,100491
2017-11-05T12:15:01.528Z,100502
2017-11-05T12:17:32.330Z,100491
2017-11-05T12:20:00.545Z,100496
2017-11-05T12:22:28.781Z,100500
2017-11-05T12:24:56.968Z,100501
2017-11-05T12:27:25.171Z,100498
2017-11-05T12:29:53.432Z,100493
2017-11-05T12:32:21.644Z,100498
2017-11-05T12:34:49.881Z,100506
2017-11-05T12:37:18.100Z,100504
2017-11-05T12:39:46.298Z,100511
2017-11-05T12:42:14.464Z,100510
2017-11-05T12:44:42.664Z,100508
2017-11-05T12:47:11.626Z,100516
2017-11-05T12:49:39.806Z,100521
2017-11-05T12:52:08.152Z,100507
2017-11-05T12:54:36.343Z,100509
2017-11-05T12:57:04.534Z,100514
2017-11-05T12:59:32.746Z,100515
2017-11-05T13:02:00.927Z,100519
2017-11-05T13:04:29.191Z,100519
2017-11-05T13:06:57.415Z,100520
2017-11-05T13:09:25.710Z,100527
2017-11-05T13:11:53.923Z,100525
2017-11-05T13:14:22.363Z,100525
2017-11-05T13:16:50.676Z,100527
2017-11-05T13:19:18.966Z,100534
2017-11-05T13:21:47.150Z,100537
2017-11-05T13:24:15.333Z,100541
2017-11-05T13:26:43.543Z,100546
2017-11-05T13:29:12.503Z,100542
2017-11-05T13:31:40.709Z,100536
2017-11-05T13:34:09.864Z,100541
2017-11-05T13:36:38.061Z,100533
2017-11-05T13:39:06.337Z,100537
2017-11-05T13:41:34.526Z,100534
2017-11-05T13:44:03.788Z,100531
2017-11-05T13:46:32.924Z,100555
2017-11-05T13:49:01.890Z,100559
2017-11-05T13:51:30.092Z,100558
2017-11-05T13:54:00.236Z,100573
2017-11-05T13:56:28.447Z,100572
2017-11-05T13:58:56.639Z,100569
2017-11-05T14:01:25.126Z,100574
2017-11-05T14:03:54.096Z,100587
2017-11-05T14:06:23.278Z,100576
2017-11-05T14:08:51.482Z,100581
2017-11-05T14:11:19.695Z,100586
2017-11-05T14:13:49.991Z,100590
2017-11-05T14:16:18.982Z,100580
2017-11-05T14:18:47.951Z,100583
2017-11-05T14:21:16.460Z,100581
2017-11-05T14:23:45.461Z,100590
2017-11-05T14:26:14.478Z,100594
2017-11-05T14:28:42.659Z,100590
2017-11-05T14:31:10.936Z,100586
2017-11-05T14:33:39.145Z,100579
2017-11-05T14:36:07.337Z,100587
2017-11-05T14:38:36.315Z,100589
2017-11-05T14:41:04.559Z,100591
2017-11-05T14:43:32.745Z,100588
2017-11-05T14:46:00.932Z,100592
2017-11-05T14:48:29.125Z,100598
2017-11-05T14:50:58.070Z,100594
2017-11-05T14:53:26.351Z,100596
2017-11-05T14:55:54.537Z,100609
2017-11-05T14:58:22.744Z,100606
2017-11-05T15:00:51.744Z,100616
2017-11-05T15:03:20.970Z,100624
2017-11-05T15:05:49.156Z,100628
2017-11-05T15:08:17.346Z,100625
2017-11-05T15:10:45.533Z,100635
2017-11-05T15:13:13.723Z,100630
2017-11-05T15:15:42.679Z,100640
2017-11-05T15:18:10.894Z,100639
2017-11-05T15:20:40.207Z,100644
2017-11-05T15:23:08.437Z,100645
2017-11-05T15:25:36.638Z,100644
2017-11-05T15:28:05.625Z,100645
2017-11-05T15:30:34.584Z,100645
2017-11-05T15:33:02.751Z,100648
2017-11-05T15:35:30.936Z,100652
2017-11-05T15:37:59.131Z,100646
2017-11-05T15:40:27.332Z,100665
2017-11-05T15:42:55.536Z,100670
2017-11-05T15:45:23.796Z,100673
2017-11-05T15:47:51.996Z,100683
2017-11-05T15:50:20.201Z,100683
2017-11-05T15:52:48.660Z,100692
2017-11-05T15:55:16.919Z,100697
2017-11-05T15:57:45.103Z,100700
2017-11-05T16:00:13.284Z,100709
2017-11-05T16:02:41.491Z,100716
2017-11-05T16:05:10.460Z,100720
2017-11-05T16:07:39.510Z,100738
2017-11-05T16:10:07.806Z,100746
2017-11-05T16:12:35.997Z,100743
2017-11-05T16:15:04.564Z,100753
2017-11-05T16:17:32.786Z,100752
2017-11-05T16:20:00.982Z,100752
2017-11-05T16:22:29.160Z,100759
2017-11-05T16:24:57.366Z,100762
2017-11-05T16:27:25.573Z,100769
2017-11-05T16:29:54.562Z,100767
2017-11-05T16:32:23.506Z,100783
2017-11-05T16:34:51.693Z,100778
2017-11-05T16:37:20.286Z,100787
2017-11-05T16:39:48.486Z,100793
2017-11-05T16:42:17.459Z,100791
2017-11-05T16:44:45.686Z,100800
2017-11-05T16:47:13.854Z,100820
2017-11-05T16:49:42.067Z,100828
2017-11-05T16:52:10.244Z,100823
2017-11-05T16:54:38.440Z,100826
2017-11-05T16:57:07.416Z,100821
2017-11-05T16:59:35.991Z,100830
2017-11-05T17:02:04.235Z,100828
2017-11-05T17:04:32.499Z,100823
2017-11-05T17:07:00.741Z,100839
2017-11-05T17:09:29.675Z,100837
2017-11-05T17:11:57.938Z,100838
2017-11-05T17:14:26.115Z,100836
2017-11-05T17:16:54.352Z,100850
2017-11-05T17:19:23.312Z,100859
2017-11-05T17:21:51.869Z,100859
2017-11-05T17:24:20.107Z,100873
2017-11-05T17:26:49.095Z,100876
2017-11-05T17:29:18.067Z,100868
2017-11-05T17:31:46.249Z,100869
2017-11-05T17:34:16.034Z,100876
2017-11-05T17:36:44.283Z,100873
2017-11-05T17:39:12.508Z,100879
2017-11-05T17:41:41.489Z,100895
2017-11-05T17:44:09.698Z,100894
2017-11-05T17:46:37.891Z,100893
2017-11-05T17:49:06.069Z,100899
2017-11-05T17:51:34.327Z,100902
2017-11-05T17:54:02.516Z,100893
2017-11-05T17:56:30.704Z,100894
2017-11-05T17:58:58.919Z,100905
2017-11-05T18:01:27.962Z,100910
2017-11-05T18:03:56.284Z,100909
2017-11-05T18:06:25.267Z,100919
2017-11-05T18:08:53.471Z,100918
2017-11-05T18:11:21.665Z,100913
2017-11-05T18:13:49.847Z,100921
2017-11-05T18:16:18.100Z,100915
2017-11-05T18:18:46.302Z,100915
2017-11-05T18:21:14.495Z,100904
2017-11-05T18:23:42.675Z,100906
2017-11-05T18:26:10.871Z,100911
2017-11-05T18:28:39.826Z,100910
2017-11-05T18:31:08.022Z,100911
2017-11-05T18:33:36.975Z,100921
2017-11-05T18:36:06.160Z,100919
2017-11-05T18:38:34.826Z,100926
2017-11-05T18:41:03.104Z,100931
2017-11-05T18:43:31.307Z,100930
2017-11-05T18:45:59.594Z,100949
2017-11-05T18:48:27.861Z,100939
2017-11-05T18:50:56.114Z,100949
2017-11-05T18:53:24.310Z,100948
2017-11-05T18:55:52.542Z,100947
2017-11-05T18:58:21.513Z,100946
2017-11-05T19:00:50.570Z,100950
2017-11-05T19:03:18.794Z,100955
2017-11-05T19:05:47.809Z,100952
2017-11-05T19:08:16.004Z,100955
2017-11-05T19:10:44.203Z,100962
2017-11-05T19:13:12.433Z,100965
2017-11-05T19:15:40.634Z,100977
2017-11-05T19:18:08.860Z,100984
2017-11-05T19:20:38.918Z,100989
2017-11-05T19:23:07.160Z,100985
2017-11-05T19:25:35.376Z,100988
2017-11-05T19:28:03.763Z,100997
2017-11-05T19:30:31.955Z,101003
2017-11-05T19:33:00.259Z,101010
2017-11-05T19:35:28.483Z,101015
2017-11-05T19:37:57.034Z,101011
2017-11-05T19:40:25.232Z,101019
2017-11-05T19:42:53.428Z,101025
2017-11-05T19:45:21.713Z,101035
2017-11-05T19:47:50.706Z,101033
2017-11-05T19:50:18.945Z,101030
2017-11-05T19:52:47.151Z,101035
2017-11-05T19:55:15.448Z,101038
2017-11-05T19:57:44.452Z,101039
2017-11-05T20:00:12.687Z,101040
2017-11-05T20:02:40.982Z,101044
2017-11-05T20:05:09.985Z,101043
2017-11-05T20:07:38.220Z,101044
2017-11-05T20:10:06.457Z,101045
2017-11-05T20:12:34.949Z,101047
2017-11-05T20:15:03.220Z,101043
2017-11-05T20:17:31.480Z,101047
2017-11-05T20:19:59.858Z,101053
2017-11-05T20:22:28.111Z,101055
2017-11-05T20:24:56.392Z,101049
2017-11-05T20:27:24.633Z,101052
2017-11-05T20:29:52.842Z,101053
2017-11-05T20:32:21.786Z,101054
2017-11-05T20:34:49.997Z,101061
2017-11-05T20:37:19.345Z,101057
2017-11-05T20:39:47.601Z,101061
2017-11-05T20:42:16.762Z,101061
2017-11-05T20:44:45.814Z,101066
2017-11-05T20:47:14.035Z,101074
2017-11-05T20:49:43.075Z,101074
2017-11-05T20:52:11.299Z,101084
2017-11-05T20:54:40.253Z,101085
2017-11-05T20:57:08.491Z,101094
2017-11-05T20:59:36.734Z,101104
2017-11-05T21:02:05.703Z,101100
2017-11-05T21:04:33.912Z,101109
2017-11-05T21:07:03.012Z,101110
2017-11-05T21:09:31.213Z,101111
2017-11-05T21:11:59.441Z,101111
2017-11-05T21:14:28.482Z,101119
2017-11-05T21:16:56.691Z,101118
2017-11-05T21:19:24.884Z,101126
2017-11-05T21:21:53.264Z,101112
2017-11-05T21:24:22.260Z,101123
2017-11-05T21:26:51.216Z,101125
2017-11-05T21:29:19.418Z,101132
2017-11-05T21:31:48.703Z,101127
2017-11-05T21:34:16.920Z,101129
2017-11-05T21:36:45.112Z,101133
2017-11-05T21:39:13.344Z,101133
2017-11-05T21:41:42.311Z,101125
2017-11-05T21:44:10.559Z,101130
2017-11-05T21:46:38.767Z,101131
2017-11-05T21:49:07.026Z,101147
2017-11-05T21:51:35.212Z,101149
2017-11-05T21:54:03.413Z,101147
2017-11-05T21:56:32.351Z,101145
2017-11-05T21:59:00.563Z,101147
2017-11-05T22:01:29.551Z,101155
2017-11-05T22:03:57.755Z,101162
2017-11-05T22:06:25.983Z,101165
2017-11-05T22:08:54.171Z,101165
2017-11-05T22:11:22.394Z,101165
2017-11-05T22:13:50.597Z,101163
2017-11-05T22:16:18.836Z,101169
2017-11-05T22:18:47.080Z,101160
2017-11-05T22:21:16.116Z,101161
2017-11-05T22:23:44.556Z,101157
2017-11-05T22:26:13.536Z,101157
2017-11-05T22:28:42.619Z,101160
2017-11-05T22:31:10.844Z,101172
2017-11-05T22:33:39.925Z,101171
2017-11-05T22:36:08.230Z,101177
2017-11-05T22:38:36.435Z,101173
2017-11-05T22:41:04.663Z,101178
2017-11-05T22:43:33.028Z,101182
2017-11-05T22:46:01.367Z,101186
2017-11-05T22:48:29.591Z,101187
2017-11-05T22:50:57.784Z,101185
2017-11-05T22:53:26.232Z,101199
2017-11-05T22:55:54.427Z,101192
2017-11-05T22:58:23.441Z,101195
2017-11-05T23:00:51.777Z,101196
2017-11-05T23:03:20.031Z,101197
2017-11-05T23:05:49.047Z,101202
2017-11-05T23:08:17.697Z,101210
2017-11-05T23:10:46.655Z,101205
2017-11-05T23:13:15.040Z,101213
2017-11-05T23:15:43.292Z,101209
2017-11-05T23:18:11.499Z,101211
2017-11-05T23:20:39.724Z,101219
2017-11-05T23:23:08.017Z,101226
2017-11-05T23:25:36.301Z,101221
2017-11-05T23:28:04.564Z,101223
2017-11-05T23:30:32.819Z,101231
2017-11-05T23:33:01.006Z,101221
2017-11-05T23:35:29.317Z,101225
2017-11-05T23:37:57.529Z,101222
2017-11-05T23:40:25.812Z,101234
2017-11-05T23:42:54.033Z,101235
2017-11-05T23:45:22.225Z,101243
2017-11-05T23:47:50.447Z,101243
2017-11-05T23:50:18.744Z,101248
2017-11-05T23:52:47.060Z,101246
2017-11-05T23:55:15.569Z,101256
2017-11-05T23:57:43.863Z,101243
